sensor_id;sensor_type;location;lat;lon;timestamp;temperature;humidity
15546;DHT22;7874;48.870;11.074;2023-07-28T00:02:10;16.20;99.90
15546;DHT22;7874;48.870;11.074;2023-07-28T00:04:37;16.20;99.90
15546;DHT22;7874;48.870;11.074;2023-07-28T00:07:05;16.20;99.90
15546;DHT22;7874;48.870;11.074;2023-07-28T00:09:32;16.20;99.90
15546;DHT22;7874;48.870;11.074;2023-07-28T00:12:00;16.20;99.90
15546;DHT22;7874;48.870;11.074;2023-07-28T00:14:27;16.20;99.90
15546;DHT22;7874;48.870;11.074;2023-07-28T00:16:56;16.20;99.90
15546;DHT22;7874;48.870;11.074;2023-07-28T00:19:23;16.20;99.90
15546;DHT22;7874;48.870;11.074;2023-07-28T00:21:51;16.20;99.90
15546;DHT22;7874;48.870;11.074;2023-07-28T00:24:19;16.10;99.90
15546;DHT22;7874;48.870;11.074;2023-07-28T00:26:46;16.10;99.90
15546;DHT22;7874;48.870;11.074;2023-07-28T00:29:15;16.10;99.90
15546;DHT22;7874;48.870;11.074;2023-07-28T00:31:42;16.20;99.90
15546;DHT22;7874;48.870;11.074;2023-07-28T00:34:08;16.20;99.90
15546;DHT22;7874;48.870;11.074;2023-07-28T00:36:35;16.10;99.90
15546;DHT22;7874;48.870;11.074;2023-07-28T00:39:02;16.00;99.90
15546;DHT22;7874;48.870;11.074;2023-07-28T00:41:30;16.10;99.90
15546;DHT22;7874;48.870;11.074;2023-07-28T00:43:57;16.10;99.90
15546;DHT22;7874;48.870;11.074;2023-07-28T00:46:24;16.00;99.90
15546;DHT22;7874;48.870;11.074;2023-07-28T00:48:51;16.00;99.90
15546;DHT22;7874;48.870;11.074;2023-07-28T00:51:19;16.00;99.90
15546;DHT22;7874;48.870;11.074;2023-07-28T00:53:46;15.90;99.90
15546;DHT22;7874;48.870;11.074;2023-07-28T00:56:12;15.90;99.90
15546;DHT22;7874;48.870;11.074;2023-07-28T00:58:42;15.90;99.90
15546;DHT22;7874;48.870;11.074;2023-07-28T01:01:09;15.90;99.90
15546;DHT22;7874;48.870;11.074;2023-07-28T01:03:35;15.80;99.90
15546;DHT22;7874;48.870;11.074;2023-07-28T01:06:13;15.70;99.90
15546;DHT22;7874;48.870;11.074;2023-07-28T01:08:46;15.80;99.90
15546;DHT22;7874;48.870;11.074;2023-07-28T01:11:14;15.70;99.90
15546;DHT22;7874;48.870;11.074;2023-07-28T01:13:42;15.70;99.90
15546;DHT22;7874;48.870;11.074;2023-07-28T01:16:09;15.70;99.90
15546;DHT22;7874;48.870;11.074;2023-07-28T01:18:36;15.60;99.90
15546;DHT22;7874;48.870;11.074;2023-07-28T01:21:05;15.60;99.90
15546;DHT22;7874;48.870;11.074;2023-07-28T01:23:41;15.60;99.90
15546;DHT22;7874;48.870;11.074;2023-07-28T01:26:11;15.60;99.90
15546;DHT22;7874;48.870;11.074;2023-07-28T01:28:40;15.60;99.90
15546;DHT22;7874;48.870;11.074;2023-07-28T01:31:08;15.60;99.90
15546;DHT22;7874;48.870;11.074;2023-07-28T01:33:40;15.60;99.90
15546;DHT22;7874;48.870;11.074;2023-07-28T01:36:06;15.50;99.90
15546;DHT22;7874;48.870;11.074;2023-07-28T01:38:36;15.50;99.90
15546;DHT22;7874;48.870;11.074;2023-07-28T01:41:03;15.50;99.90
15546;DHT22;7874;48.870;11.074;2023-07-28T01:43:30;15.50;99.90
15546;DHT22;7874;48.870;11.074;2023-07-28T01:47:00;15.50;99.90
15546;DHT22;7874;48.870;11.074;2023-07-28T01:49:27;15.40;99.90
15546;DHT22;7874;48.870;11.074;2023-07-28T01:51:54;15.30;99.90
15546;DHT22;7874;48.870;11.074;2023-07-28T01:54:20;15.30;99.90
15546;DHT22;7874;48.870;11.074;2023-07-28T01:56:50;15.20;99.90
15546;DHT22;7874;48.870;11.074;2023-07-28T01:59:16;15.30;99.90
15546;DHT22;7874;48.870;11.074;2023-07-28T02:01:44;15.30;99.90
15546;DHT22;7874;48.870;11.074;2023-07-28T02:04:12;15.20;99.90
15546;DHT22;7874;48.870;11.074;2023-07-28T02:06:42;15.30;99.90
15546;DHT22;7874;48.870;11.074;2023-07-28T02:09:09;15.30;99.90
15546;DHT22;7874;48.870;11.074;2023-07-28T02:11:35;15.20;99.90
15546;DHT22;7874;48.870;11.074;2023-07-28T02:14:02;15.20;99.90
15546;DHT22;7874;48.870;11.074;2023-07-28T02:16:29;15.30;99.90
15546;DHT22;7874;48.870;11.074;2023-07-28T02:18:57;15.30;99.90
15546;DHT22;7874;48.870;11.074;2023-07-28T02:21:25;15.30;99.90
15546;DHT22;7874;48.870;11.074;2023-07-28T02:23:53;15.20;99.90
15546;DHT22;7874;48.870;11.074;2023-07-28T02:26:20;15.20;99.90
15546;DHT22;7874;48.870;11.074;2023-07-28T02:28:47;15.20;99.90
15546;DHT22;7874;48.870;11.074;2023-07-28T02:31:13;15.20;99.90
15546;DHT22;7874;48.870;11.074;2023-07-28T02:33:42;15.20;99.90
15546;DHT22;7874;48.870;11.074;2023-07-28T02:36:11;15.10;99.90
15546;DHT22;7874;48.870;11.074;2023-07-28T02:38:39;15.00;99.90
15546;DHT22;7874;48.870;11.074;2023-07-28T02:41:06;15.00;99.90
15546;DHT22;7874;48.870;11.074;2023-07-28T02:43:32;15.10;99.90
15546;DHT22;7874;48.870;11.074;2023-07-28T02:46:00;15.10;99.90
15546;DHT22;7874;48.870;11.074;2023-07-28T02:48:27;15.00;99.90
15546;DHT22;7874;48.870;11.074;2023-07-28T02:50:53;15.00;99.90
15546;DHT22;7874;48.870;11.074;2023-07-28T02:53:20;14.90;99.90
15546;DHT22;7874;48.870;11.074;2023-07-28T02:55:51;15.00;99.90
15546;DHT22;7874;48.870;11.074;2023-07-28T02:58:18;14.90;99.90
15546;DHT22;7874;48.870;11.074;2023-07-28T03:00:44;14.90;99.90
15546;DHT22;7874;48.870;11.074;2023-07-28T03:03:15;14.90;99.90
15546;DHT22;7874;48.870;11.074;2023-07-28T03:05:41;14.90;99.90
15546;DHT22;7874;48.870;11.074;2023-07-28T03:08:08;14.90;99.90
15546;DHT22;7874;48.870;11.074;2023-07-28T03:10:37;14.90;99.90
15546;DHT22;7874;48.870;11.074;2023-07-28T03:13:05;14.80;99.90
15546;DHT22;7874;48.870;11.074;2023-07-28T03:15:32;14.80;99.90
15546;DHT22;7874;48.870;11.074;2023-07-28T03:17:59;14.80;99.90
15546;DHT22;7874;48.870;11.074;2023-07-28T03:20:26;14.80;99.90
15546;DHT22;7874;48.870;11.074;2023-07-28T03:22:53;14.70;99.90
15546;DHT22;7874;48.870;11.074;2023-07-28T03:25:20;14.70;99.90
15546;DHT22;7874;48.870;11.074;2023-07-28T03:27:47;14.70;99.90
15546;DHT22;7874;48.870;11.074;2023-07-28T03:30:15;14.70;99.90
15546;DHT22;7874;48.870;11.074;2023-07-28T03:32:42;14.60;99.90
15546;DHT22;7874;48.870;11.074;2023-07-28T03:35:09;14.60;99.90
15546;DHT22;7874;48.870;11.074;2023-07-28T03:37:35;14.60;99.90
15546;DHT22;7874;48.870;11.074;2023-07-28T03:40:02;14.60;99.90
15546;DHT22;7874;48.870;11.074;2023-07-28T03:42:29;14.50;99.90
15546;DHT22;7874;48.870;11.074;2023-07-28T03:44:56;14.50;99.90
15546;DHT22;7874;48.870;11.074;2023-07-28T03:47:24;14.50;99.90
15546;DHT22;7874;48.870;11.074;2023-07-28T03:49:51;14.50;99.90
15546;DHT22;7874;48.870;11.074;2023-07-28T03:52:18;14.50;99.90
15546;DHT22;7874;48.870;11.074;2023-07-28T03:54:44;14.50;99.90
15546;DHT22;7874;48.870;11.074;2023-07-28T03:57:11;14.50;99.90
15546;DHT22;7874;48.870;11.074;2023-07-28T03:59:38;14.50;99.90
15546;DHT22;7874;48.870;11.074;2023-07-28T04:02:05;14.40;99.90
15546;DHT22;7874;48.870;11.074;2023-07-28T04:04:33;14.40;99.90
15546;DHT22;7874;48.870;11.074;2023-07-28T04:07:02;14.40;99.90
15546;DHT22;7874;48.870;11.074;2023-07-28T04:09:29;14.40;99.90
15546;DHT22;7874;48.870;11.074;2023-07-28T04:11:55;14.40;99.90
15546;DHT22;7874;48.870;11.074;2023-07-28T04:14:22;14.40;99.90
15546;DHT22;7874;48.870;11.074;2023-07-28T04:16:49;14.40;99.90
15546;DHT22;7874;48.870;11.074;2023-07-28T04:19:16;14.50;99.90
15546;DHT22;7874;48.870;11.074;2023-07-28T04:21:44;14.50;99.90
15546;DHT22;7874;48.870;11.074;2023-07-28T04:24:11;14.50;99.90
15546;DHT22;7874;48.870;11.074;2023-07-28T04:26:38;14.60;99.90
15546;DHT22;7874;48.870;11.074;2023-07-28T04:29:07;14.60;99.90
15546;DHT22;7874;48.870;11.074;2023-07-28T04:31:34;14.70;99.90
15546;DHT22;7874;48.870;11.074;2023-07-28T04:35:48;14.80;99.90
15546;DHT22;7874;48.870;11.074;2023-07-28T04:38:14;14.80;99.90
15546;DHT22;7874;48.870;11.074;2023-07-28T04:40:42;14.80;99.90
15546;DHT22;7874;48.870;11.074;2023-07-28T04:43:12;14.80;99.90
15546;DHT22;7874;48.870;11.074;2023-07-28T04:45:38;14.80;99.90
15546;DHT22;7874;48.870;11.074;2023-07-28T04:48:05;14.80;99.90
15546;DHT22;7874;48.870;11.074;2023-07-28T04:50:32;14.90;99.90
15546;DHT22;7874;48.870;11.074;2023-07-28T04:53:00;14.90;99.90
15546;DHT22;7874;48.870;11.074;2023-07-28T04:55:27;14.90;99.90
15546;DHT22;7874;48.870;11.074;2023-07-28T04:57:54;14.90;99.90
15546;DHT22;7874;48.870;11.074;2023-07-28T05:00:21;14.90;99.90
15546;DHT22;7874;48.870;11.074;2023-07-28T05:02:48;14.90;99.90
15546;DHT22;7874;48.870;11.074;2023-07-28T05:05:17;14.90;99.90
15546;DHT22;7874;48.870;11.074;2023-07-28T05:07:44;14.90;99.90
15546;DHT22;7874;48.870;11.074;2023-07-28T05:10:11;15.00;99.90
15546;DHT22;7874;48.870;11.074;2023-07-28T05:12:38;15.10;99.90
15546;DHT22;7874;48.870;11.074;2023-07-28T05:15:05;15.20;99.90
15546;DHT22;7874;48.870;11.074;2023-07-28T05:17:35;15.20;99.90
15546;DHT22;7874;48.870;11.074;2023-07-28T05:20:02;15.20;99.90
15546;DHT22;7874;48.870;11.074;2023-07-28T05:22:29;15.20;99.90
15546;DHT22;7874;48.870;11.074;2023-07-28T05:24:56;15.30;99.90
15546;DHT22;7874;48.870;11.074;2023-07-28T05:27:24;15.40;99.90
15546;DHT22;7874;48.870;11.074;2023-07-28T05:29:51;15.40;99.90
15546;DHT22;7874;48.870;11.074;2023-07-28T05:32:18;15.60;99.90
15546;DHT22;7874;48.870;11.074;2023-07-28T05:34:45;15.70;99.90
15546;DHT22;7874;48.870;11.074;2023-07-28T05:37:12;15.70;99.90
15546;DHT22;7874;48.870;11.074;2023-07-28T05:39:38;15.70;99.90
15546;DHT22;7874;48.870;11.074;2023-07-28T05:42:06;15.60;99.90
15546;DHT22;7874;48.870;11.074;2023-07-28T05:44:34;15.70;99.90
15546;DHT22;7874;48.870;11.074;2023-07-28T05:47:00;15.70;99.90
15546;DHT22;7874;48.870;11.074;2023-07-28T05:49:27;15.80;99.90
15546;DHT22;7874;48.870;11.074;2023-07-28T05:51:54;15.90;99.90
15546;DHT22;7874;48.870;11.074;2023-07-28T05:54:21;16.00;99.90
15546;DHT22;7874;48.870;11.074;2023-07-28T05:56:48;16.10;99.90
15546;DHT22;7874;48.870;11.074;2023-07-28T05:59:15;16.20;99.90
15546;DHT22;7874;48.870;11.074;2023-07-28T06:01:44;16.20;99.90
15546;DHT22;7874;48.870;11.074;2023-07-28T06:04:11;16.30;99.90
15546;DHT22;7874;48.870;11.074;2023-07-28T06:06:37;16.20;99.90
15546;DHT22;7874;48.870;11.074;2023-07-28T06:09:04;16.20;99.90
15546;DHT22;7874;48.870;11.074;2023-07-28T06:11:31;16.20;99.90
15546;DHT22;7874;48.870;11.074;2023-07-28T06:13:58;16.20;99.90
15546;DHT22;7874;48.870;11.074;2023-07-28T06:16:24;16.30;99.90
15546;DHT22;7874;48.870;11.074;2023-07-28T06:18:53;16.30;99.90
15546;DHT22;7874;48.870;11.074;2023-07-28T06:21:19;16.40;99.90
15546;DHT22;7874;48.870;11.074;2023-07-28T06:23:46;16.60;99.90
15546;DHT22;7874;48.870;11.074;2023-07-28T06:26:13;16.70;99.90
15546;DHT22;7874;48.870;11.074;2023-07-28T06:28:39;16.80;99.90
15546;DHT22;7874;48.870;11.074;2023-07-28T06:31:06;16.80;99.90
15546;DHT22;7874;48.870;11.074;2023-07-28T06:33:34;16.90;99.90
15546;DHT22;7874;48.870;11.074;2023-07-28T06:36:03;16.70;99.90
15546;DHT22;7874;48.870;11.074;2023-07-28T06:38:29;16.70;99.90
15546;DHT22;7874;48.870;11.074;2023-07-28T06:40:56;16.70;99.90
15546;DHT22;7874;48.870;11.074;2023-07-28T06:43:23;16.70;99.90
15546;DHT22;7874;48.870;11.074;2023-07-28T06:45:51;16.70;99.90
15546;DHT22;7874;48.870;11.074;2023-07-28T06:48:17;16.70;99.90
15546;DHT22;7874;48.870;11.074;2023-07-28T06:50:44;16.80;99.90
15546;DHT22;7874;48.870;11.074;2023-07-28T06:53:12;16.80;99.90
15546;DHT22;7874;48.870;11.074;2023-07-28T06:55:39;16.90;99.90
15546;DHT22;7874;48.870;11.074;2023-07-28T06:58:06;17.00;99.90
15546;DHT22;7874;48.870;11.074;2023-07-28T07:00:32;17.10;99.90
15546;DHT22;7874;48.870;11.074;2023-07-28T07:02:59;17.30;99.90
15546;DHT22;7874;48.870;11.074;2023-07-28T07:05:26;17.40;99.90
15546;DHT22;7874;48.870;11.074;2023-07-28T07:07:53;17.50;99.90
15546;DHT22;7874;48.870;11.074;2023-07-28T07:10:22;17.60;99.90
15546;DHT22;7874;48.870;11.074;2023-07-28T07:12:48;17.70;99.90
15546;DHT22;7874;48.870;11.074;2023-07-28T07:15:15;17.80;99.90
15546;DHT22;7874;48.870;11.074;2023-07-28T07:17:42;17.80;99.90
15546;DHT22;7874;48.870;11.074;2023-07-28T07:20:09;17.70;99.90
15546;DHT22;7874;48.870;11.074;2023-07-28T07:24:35;17.70;99.90
15546;DHT22;7874;48.870;11.074;2023-07-28T07:27:01;17.90;99.90
15546;DHT22;7874;48.870;11.074;2023-07-28T07:29:28;18.00;99.90
15546;DHT22;7874;48.870;11.074;2023-07-28T07:31:55;18.20;99.90
15546;DHT22;7874;48.870;11.074;2023-07-28T07:34:22;18.20;99.90
15546;DHT22;7874;48.870;11.074;2023-07-28T07:36:49;18.20;99.90
15546;DHT22;7874;48.870;11.074;2023-07-28T07:39:16;18.30;99.90
15546;DHT22;7874;48.870;11.074;2023-07-28T07:41:44;18.40;99.90
15546;DHT22;7874;48.870;11.074;2023-07-28T07:44:10;18.60;99.90
15546;DHT22;7874;48.870;11.074;2023-07-28T07:46:37;18.70;99.90
15546;DHT22;7874;48.870;11.074;2023-07-28T07:49:04;18.80;99.90
15546;DHT22;7874;48.870;11.074;2023-07-28T07:51:31;18.80;99.90
15546;DHT22;7874;48.870;11.074;2023-07-28T07:53:59;18.80;99.90
15546;DHT22;7874;48.870;11.074;2023-07-28T07:56:26;18.80;99.90
15546;DHT22;7874;48.870;11.074;2023-07-28T07:58:54;18.80;99.90
15546;DHT22;7874;48.870;11.074;2023-07-28T08:01:21;18.80;99.90
15546;DHT22;7874;48.870;11.074;2023-07-28T08:03:48;18.90;99.90
15546;DHT22;7874;48.870;11.074;2023-07-28T08:06:15;19.10;99.90
15546;DHT22;7874;48.870;11.074;2023-07-28T08:08:42;19.10;99.90
15546;DHT22;7874;48.870;11.074;2023-07-28T08:11:08;19.20;99.90
15546;DHT22;7874;48.870;11.074;2023-07-28T08:13:35;19.20;99.90
15546;DHT22;7874;48.870;11.074;2023-07-28T08:16:03;19.20;99.90
15546;DHT22;7874;48.870;11.074;2023-07-28T08:18:30;19.10;99.90
15546;DHT22;7874;48.870;11.074;2023-07-28T08:20:57;19.10;99.90
15546;DHT22;7874;48.870;11.074;2023-07-28T08:23:24;19.10;99.90
15546;DHT22;7874;48.870;11.074;2023-07-28T08:25:50;19.10;99.90
15546;DHT22;7874;48.870;11.074;2023-07-28T08:28:17;19.10;99.90
15546;DHT22;7874;48.870;11.074;2023-07-28T08:30:44;19.20;99.90
15546;DHT22;7874;48.870;11.074;2023-07-28T08:33:12;19.30;99.90
15546;DHT22;7874;48.870;11.074;2023-07-28T08:35:38;19.50;99.90
15546;DHT22;7874;48.870;11.074;2023-07-28T08:38:05;19.40;99.90
15546;DHT22;7874;48.870;11.074;2023-07-28T08:40:33;19.30;99.90
15546;DHT22;7874;48.870;11.074;2023-07-28T08:43:00;19.30;99.90
15546;DHT22;7874;48.870;11.074;2023-07-28T08:45:27;19.20;99.90
15546;DHT22;7874;48.870;11.074;2023-07-28T08:47:54;19.20;99.90
15546;DHT22;7874;48.870;11.074;2023-07-28T08:50:22;19.20;99.90
15546;DHT22;7874;48.870;11.074;2023-07-28T08:52:48;19.20;99.90
15546;DHT22;7874;48.870;11.074;2023-07-28T08:55:16;19.20;99.90
15546;DHT22;7874;48.870;11.074;2023-07-28T08:57:43;19.30;99.90
15546;DHT22;7874;48.870;11.074;2023-07-28T09:00:11;19.40;99.90
15546;DHT22;7874;48.870;11.074;2023-07-28T09:02:40;19.40;99.90
15546;DHT22;7874;48.870;11.074;2023-07-28T09:05:17;19.40;99.90
15546;DHT22;7874;48.870;11.074;2023-07-28T09:07:45;19.50;99.90
15546;DHT22;7874;48.870;11.074;2023-07-28T09:10:12;19.60;99.90
15546;DHT22;7874;48.870;11.074;2023-07-28T09:12:44;19.80;99.90
15546;DHT22;7874;48.870;11.074;2023-07-28T09:15:11;20.20;99.90
15546;DHT22;7874;48.870;11.074;2023-07-28T09:17:42;20.50;99.90
15546;DHT22;7874;48.870;11.074;2023-07-28T09:20:13;20.60;99.90
15546;DHT22;7874;48.870;11.074;2023-07-28T09:22:40;21.00;99.90
15546;DHT22;7874;48.870;11.074;2023-07-28T09:25:13;21.10;99.90
15546;DHT22;7874;48.870;11.074;2023-07-28T09:27:40;21.50;99.90
15546;DHT22;7874;48.870;11.074;2023-07-28T09:30:07;22.20;99.90
15546;DHT22;7874;48.870;11.074;2023-07-28T09:32:34;22.50;99.90
15546;DHT22;7874;48.870;11.074;2023-07-28T09:35:07;22.60;99.90
15546;DHT22;7874;48.870;11.074;2023-07-28T09:37:37;22.30;99.90
15546;DHT22;7874;48.870;11.074;2023-07-28T09:40:07;22.20;99.90
15546;DHT22;7874;48.870;11.074;2023-07-28T09:42:37;22.10;99.90
15546;DHT22;7874;48.870;11.074;2023-07-28T09:45:04;21.90;99.90
15546;DHT22;7874;48.870;11.074;2023-07-28T09:47:33;21.80;99.90
15546;DHT22;7874;48.870;11.074;2023-07-28T09:50:02;21.90;99.90
15546;DHT22;7874;48.870;11.074;2023-07-28T09:52:33;21.80;99.90
15546;DHT22;7874;48.870;11.074;2023-07-28T09:55:05;21.70;99.90
15546;DHT22;7874;48.870;11.074;2023-07-28T09:57:38;21.70;99.90
15546;DHT22;7874;48.870;11.074;2023-07-28T10:00:07;21.50;99.90
15546;DHT22;7874;48.870;11.074;2023-07-28T10:02:35;21.40;99.90
15546;DHT22;7874;48.870;11.074;2023-07-28T10:05:02;21.20;99.90
15546;DHT22;7874;48.870;11.074;2023-07-28T10:07:30;21.20;99.90
15546;DHT22;7874;48.870;11.074;2023-07-28T10:09:58;21.10;99.90
15546;DHT22;7874;48.870;11.074;2023-07-28T10:13:22;20.90;99.90
15546;DHT22;7874;48.870;11.074;2023-07-28T10:15:49;20.60;99.90
15546;DHT22;7874;48.870;11.074;2023-07-28T10:18:19;20.40;99.90
15546;DHT22;7874;48.870;11.074;2023-07-28T10:20:46;20.30;99.90
15546;DHT22;7874;48.870;11.074;2023-07-28T10:23:16;20.20;99.90
15546;DHT22;7874;48.870;11.074;2023-07-28T10:25:44;20.10;99.90
15546;DHT22;7874;48.870;11.074;2023-07-28T10:28:27;20.00;99.90
15546;DHT22;7874;48.870;11.074;2023-07-28T10:30:57;19.90;99.90
15546;DHT22;7874;48.870;11.074;2023-07-28T10:33:29;19.90;99.90
15546;DHT22;7874;48.870;11.074;2023-07-28T10:35:57;19.90;99.90
15546;DHT22;7874;48.870;11.074;2023-07-28T10:38:29;19.90;99.90
15546;DHT22;7874;48.870;11.074;2023-07-28T10:41:11;20.00;99.90
15546;DHT22;7874;48.870;11.074;2023-07-28T10:43:41;19.90;99.90
15546;DHT22;7874;48.870;11.074;2023-07-28T10:46:09;19.90;99.90
15546;DHT22;7874;48.870;11.074;2023-07-28T10:48:41;19.90;99.90
15546;DHT22;7874;48.870;11.074;2023-07-28T10:51:08;19.90;99.90
15546;DHT22;7874;48.870;11.074;2023-07-28T10:53:35;19.90;99.90
15546;DHT22;7874;48.870;11.074;2023-07-28T10:56:03;20.10;99.90
15546;DHT22;7874;48.870;11.074;2023-07-28T10:58:33;21.10;99.90
15546;DHT22;7874;48.870;11.074;2023-07-28T11:01:02;23.40;99.90
15546;DHT22;7874;48.870;11.074;2023-07-28T11:03:28;24.10;99.90
15546;DHT22;7874;48.870;11.074;2023-07-28T11:05:56;23.70;99.90
15546;DHT22;7874;48.870;11.074;2023-07-28T11:08:23;23.60;99.90
15546;DHT22;7874;48.870;11.074;2023-07-28T11:10:50;24.10;99.90
15546;DHT22;7874;48.870;11.074;2023-07-28T11:13:17;25.00;99.90
15546;DHT22;7874;48.870;11.074;2023-07-28T11:15:44;24.70;99.90
15546;DHT22;7874;48.870;11.074;2023-07-28T11:18:15;25.60;99.90
15546;DHT22;7874;48.870;11.074;2023-07-28T11:20:42;25.40;99.90
15546;DHT22;7874;48.870;11.074;2023-07-28T11:23:10;25.10;99.90
15546;DHT22;7874;48.870;11.074;2023-07-28T11:25:41;24.80;99.90
15546;DHT22;7874;48.870;11.074;2023-07-28T11:28:09;24.80;99.90
15546;DHT22;7874;48.870;11.074;2023-07-28T11:30:38;26.20;99.90
15546;DHT22;7874;48.870;11.074;2023-07-28T11:33:08;27.40;99.90
15546;DHT22;7874;48.870;11.074;2023-07-28T11:35:37;28.20;99.90
15546;DHT22;7874;48.870;11.074;2023-07-28T11:38:04;28.40;99.90
15546;DHT22;7874;48.870;11.074;2023-07-28T11:40:31;28.30;99.90
15546;DHT22;7874;48.870;11.074;2023-07-28T11:42:58;29.00;99.90
15546;DHT22;7874;48.870;11.074;2023-07-28T11:45:26;29.70;99.90
15546;DHT22;7874;48.870;11.074;2023-07-28T11:47:56;30.20;99.90
15546;DHT22;7874;48.870;11.074;2023-07-28T11:50:24;30.20;99.90
15546;DHT22;7874;48.870;11.074;2023-07-28T11:52:53;30.70;99.90
15546;DHT22;7874;48.870;11.074;2023-07-28T11:55:20;31.20;99.90
15546;DHT22;7874;48.870;11.074;2023-07-28T11:57:48;29.90;99.90
15546;DHT22;7874;48.870;11.074;2023-07-28T12:00:15;28.20;99.90
15546;DHT22;7874;48.870;11.074;2023-07-28T12:02:43;27.20;99.90
15546;DHT22;7874;48.870;11.074;2023-07-28T12:05:14;26.80;99.90
15546;DHT22;7874;48.870;11.074;2023-07-28T12:07:41;26.00;99.90
15546;DHT22;7874;48.870;11.074;2023-07-28T12:10:14;25.70;99.90
15546;DHT22;7874;48.870;11.074;2023-07-28T12:12:42;26.80;99.90
15546;DHT22;7874;48.870;11.074;2023-07-28T12:15:20;27.50;99.90
15546;DHT22;7874;48.870;11.074;2023-07-28T12:18:05;28.50;99.90
15546;DHT22;7874;48.870;11.074;2023-07-28T12:20:34;29.10;99.90
15546;DHT22;7874;48.870;11.074;2023-07-28T12:23:01;29.50;99.90
15546;DHT22;7874;48.870;11.074;2023-07-28T12:25:30;29.80;99.90
15546;DHT22;7874;48.870;11.074;2023-07-28T12:27:56;30.20;99.90
15546;DHT22;7874;48.870;11.074;2023-07-28T12:30:23;30.10;99.90
15546;DHT22;7874;48.870;11.074;2023-07-28T12:32:50;30.00;99.90
15546;DHT22;7874;48.870;11.074;2023-07-28T12:35:17;30.00;99.90
15546;DHT22;7874;48.870;11.074;2023-07-28T12:37:44;30.60;99.90
15546;DHT22;7874;48.870;11.074;2023-07-28T12:40:12;30.60;99.90
15546;DHT22;7874;48.870;11.074;2023-07-28T12:42:40;30.40;99.50
15546;DHT22;7874;48.870;11.074;2023-07-28T12:45:08;30.50;99.60
15546;DHT22;7874;48.870;11.074;2023-07-28T12:47:36;31.10;98.70
15546;DHT22;7874;48.870;11.074;2023-07-28T12:50:03;31.60;98.10
15546;DHT22;7874;48.870;11.074;2023-07-28T12:52:31;31.60;97.20
15546;DHT22;7874;48.870;11.074;2023-07-28T12:54:58;30.90;98.80
15546;DHT22;7874;48.870;11.074;2023-07-28T12:57:25;31.10;96.70
15546;DHT22;7874;48.870;11.074;2023-07-28T13:02:08;30.40;97.80
15546;DHT22;7874;48.870;11.074;2023-07-28T13:04:35;29.40;98.00
15546;DHT22;7874;48.870;11.074;2023-07-28T13:07:01;28.60;99.00
15546;DHT22;7874;48.870;11.074;2023-07-28T13:09:28;28.10;99.70
15546;DHT22;7874;48.870;11.074;2023-07-28T13:11:55;27.30;99.90
15546;DHT22;7874;48.870;11.074;2023-07-28T13:14:21;26.90;99.90
15546;DHT22;7874;48.870;11.074;2023-07-28T13:16:48;26.40;99.90
15546;DHT22;7874;48.870;11.074;2023-07-28T13:19:17;26.00;99.90
15546;DHT22;7874;48.870;11.074;2023-07-28T13:21:44;25.70;99.90
15546;DHT22;7874;48.870;11.074;2023-07-28T13:24:11;25.60;99.90
15546;DHT22;7874;48.870;11.074;2023-07-28T13:26:37;25.50;99.90
15546;DHT22;7874;48.870;11.074;2023-07-28T13:29:04;25.40;99.90
15546;DHT22;7874;48.870;11.074;2023-07-28T13:31:32;24.90;99.90
15546;DHT22;7874;48.870;11.074;2023-07-28T13:33:59;24.80;99.90
15546;DHT22;7874;48.870;11.074;2023-07-28T13:36:27;25.10;99.90
15546;DHT22;7874;48.870;11.074;2023-07-28T13:38:54;25.00;99.90
15546;DHT22;7874;48.870;11.074;2023-07-28T13:41:21;24.90;99.90
15546;DHT22;7874;48.870;11.074;2023-07-28T13:43:48;24.90;99.90
15546;DHT22;7874;48.870;11.074;2023-07-28T13:46:15;25.00;99.90
15546;DHT22;7874;48.870;11.074;2023-07-28T13:48:42;25.30;99.90
15546;DHT22;7874;48.870;11.074;2023-07-28T13:51:08;25.50;99.90
15546;DHT22;7874;48.870;11.074;2023-07-28T13:53:36;25.50;99.90
15546;DHT22;7874;48.870;11.074;2023-07-28T13:56:03;25.40;99.90
15546;DHT22;7874;48.870;11.074;2023-07-28T13:58:31;25.40;99.90
15546;DHT22;7874;48.870;11.074;2023-07-28T14:00:57;25.30;99.90
15546;DHT22;7874;48.870;11.074;2023-07-28T14:03:24;25.40;99.90
15546;DHT22;7874;48.870;11.074;2023-07-28T14:05:51;25.50;99.90
15546;DHT22;7874;48.870;11.074;2023-07-28T14:08:18;25.10;99.90
15546;DHT22;7874;48.870;11.074;2023-07-28T14:10:46;24.70;99.90
15546;DHT22;7874;48.870;11.074;2023-07-28T14:13:13;24.20;99.90
15546;DHT22;7874;48.870;11.074;2023-07-28T14:15:40;24.10;99.90
15546;DHT22;7874;48.870;11.074;2023-07-28T14:18:07;24.00;99.90
15546;DHT22;7874;48.870;11.074;2023-07-28T14:20:33;23.90;99.90
15546;DHT22;7874;48.870;11.074;2023-07-28T14:23:00;23.70;99.90
15546;DHT22;7874;48.870;11.074;2023-07-28T14:25:27;23.80;99.90
15546;DHT22;7874;48.870;11.074;2023-07-28T14:27:55;23.70;99.90
15546;DHT22;7874;48.870;11.074;2023-07-28T14:30:22;23.50;99.90
15546;DHT22;7874;48.870;11.074;2023-07-28T14:32:49;23.40;99.90
15546;DHT22;7874;48.870;11.074;2023-07-28T14:35:15;23.40;99.90
15546;DHT22;7874;48.870;11.074;2023-07-28T14:37:42;23.50;99.90
15546;DHT22;7874;48.870;11.074;2023-07-28T14:40:10;23.80;99.90
15546;DHT22;7874;48.870;11.074;2023-07-28T14:42:36;23.90;99.90
15546;DHT22;7874;48.870;11.074;2023-07-28T14:45:07;23.90;99.90
15546;DHT22;7874;48.870;11.074;2023-07-28T14:47:34;23.90;99.90
15546;DHT22;7874;48.870;11.074;2023-07-28T14:50:00;23.90;99.90
15546;DHT22;7874;48.870;11.074;2023-07-28T14:52:27;23.90;99.90
15546;DHT22;7874;48.870;11.074;2023-07-28T14:54:54;23.90;99.90
15546;DHT22;7874;48.870;11.074;2023-07-28T14:57:21;23.90;99.90
15546;DHT22;7874;48.870;11.074;2023-07-28T14:59:47;23.70;99.90
15546;DHT22;7874;48.870;11.074;2023-07-28T15:02:15;23.60;99.90
15546;DHT22;7874;48.870;11.074;2023-07-28T15:04:42;23.40;99.90
15546;DHT22;7874;48.870;11.074;2023-07-28T15:07:10;23.50;99.90
15546;DHT22;7874;48.870;11.074;2023-07-28T15:09:37;23.40;99.90
15546;DHT22;7874;48.870;11.074;2023-07-28T15:12:05;23.20;99.90
15546;DHT22;7874;48.870;11.074;2023-07-28T15:14:32;23.10;99.90
15546;DHT22;7874;48.870;11.074;2023-07-28T15:17:02;22.90;99.90
15546;DHT22;7874;48.870;11.074;2023-07-28T15:19:30;22.80;99.90
15546;DHT22;7874;48.870;11.074;2023-07-28T15:21:57;22.70;99.90
15546;DHT22;7874;48.870;11.074;2023-07-28T15:24:24;22.60;99.90
15546;DHT22;7874;48.870;11.074;2023-07-28T15:26:50;22.60;99.90
15546;DHT22;7874;48.870;11.074;2023-07-28T15:29:18;22.60;99.90
15546;DHT22;7874;48.870;11.074;2023-07-28T15:31:44;22.50;99.90
15546;DHT22;7874;48.870;11.074;2023-07-28T15:34:12;22.40;99.90
15546;DHT22;7874;48.870;11.074;2023-07-28T15:36:41;22.30;99.90
15546;DHT22;7874;48.870;11.074;2023-07-28T15:39:07;22.20;99.90
15546;DHT22;7874;48.870;11.074;2023-07-28T15:41:34;22.10;99.90